Augusta Springs, VA

7:02 AM EDT on May 06, 2015 (GMT -0400)
Mountain Meadow Farm | | Change Station
CLOSE
Current Station
Personal Weather Station
Location: Goshen, VA
Elevation: 1532 ft
Nearby Weather Stations

Elev 1532 ft 38.05 °N, 79.48 °W | Updated 7 minutes ago

Overcast
Overcast
53.4 °F
Feels Like 53.4 °F
N
0.0
Wind Variable Wind from SW
Gusts 0.0 mph

Today
High -- | Low -- °F
--% Chance of Precip.
Yesterday
High -- | Low -- °F
Precip. -- in
6:15 AM 8:12 PM
Waning Gibbous, 94% visible
Pressure 30.25 in
Visibility 0.8 miles
Clouds Overcast 200 ft
Dew Point 52 °F
Humidity 95%
Rainfall 0.00 in
Snow Depth Not available.
UV 0 out of 12
Pollen 9.70 out of 12
Air Quality Not available.
Flu Activity Sporadic
METAR KSHD 061035Z AUTO 00000KT 3/4SM BR OVC002 12/11 A3025 RMK AO2 VIS 1/2V2 1/2 T01200110

More Conditions Fewer Conditions

Pressure 30.25 in
Visibility 0.8 miles
Clouds Overcast 200 ft
Dew Point 52 °F
Humidity 95%
Rainfall 0.00 in
Snow Depth Not available.
UV 0 out of 12
Pollen 9.70 out of 12
Air Quality Not available.
Flu Activity Sporadic
METAR KSHD 061035Z AUTO 00000KT 3/4SM BR OVC002 12/11 A3025 RMK AO2 VIS 1/2V2 1/2 T01200110

More Conditions Fewer Conditions

10-Day Weather Forecast

Almanac

Astronomy

May. 06, 2015 Rise Set
Actual Time
Civil Twilight
Nautical Twilight
Astronomical Twilight
Moon
Length of Visible Light
Length of Day
Tomorrow will be .
, % of the Moon is Illuminated

Today's Extremes

State Highs State Lows

Community

WunderPhotos

Upload Photos

1,818,870 photos uploaded!

WunderBlogs® & News

Nearby

Air Quality

  Air Quality AQ Index Pollutant
Not available.

Snow Depth

Station Depth Elevation

Earthquake Activity

City Distance Mag. Time & Date
Minimum magnitude displayed is 2.5.

Coastal Water Temperatures

Place Temperature

Stations

Nearby Weather Stations

Station Location Temp. Windchill Dew Point Humidity Wind Precip. Elev Updated Type